Time;durP1;ratioP1;P1;durP2;ratioP2;P2;SDS_P1;SDS_P2;PMS_P1;PMS_P2;Temp;Humidity;BMP_temperature;BMP_pressure;BME280_temperature;BME280_humidity;BME280_pressure;Samples;Min_cycle;Max_cycle;Signal;HPM_P1;HPM_P2
2023/09/27 00:00:31;;;;;;;14.38;11.95;;;;;;;15.36;80.85;98672.50;5054421;28;20111;-71
2023/09/27 00:02:57;;;;;;;15.75;11.80;;;;;;;15.32;80.79;98663.25;5074127;28;20032;-72
2023/09/27 00:05:23;;;;;;;13.90;12.43;;;;;;;15.24;80.83;98657.25;5053142;28;20112;-71
2023/09/27 00:07:51;;;;;;;16.50;13.10;;;;;;;15.27;80.71;98660.50;5052718;28;20036;-72
2023/09/27 00:10:16;;;;;;;16.13;14.18;;;;;;;15.19;80.87;98653.69;5051658;28;20029;-73
2023/09/27 00:12:42;;;;;;;18.10;15.20;;;;;;;15.13;80.71;98633.84;5038338;28;20126;-74
2023/09/27 00:15:08;;;;;;;15.60;13.90;;;;;;;15.15;80.72;98647.97;5053492;28;20027;-74
2023/09/27 00:17:34;;;;;;;14.85;13.10;;;;;;;15.21;80.59;98657.78;5074310;28;20115;-72
2023/09/27 00:19:59;;;;;;;13.93;12.43;;;;;;;15.16;80.44;98646.91;5046826;28;20044;-72
2023/09/27 00:22:25;;;;;;;17.55;13.10;;;;;;;15.21;80.62;98657.78;5031810;28;20094;-72
2023/09/27 00:24:51;;;;;;;16.00;13.05;;;;;;;15.19;80.47;98654.50;5040108;28;20023;-73
2023/09/27 00:27:16;;;;;;;16.88;13.85;;;;;;;15.18;80.36;98658.31;5040285;28;20032;-72
2023/09/27 00:29:42;;;;;;;13.88;12.48;;;;;;;15.07;80.25;98634.91;5057839;28;20031;-72
2023/09/27 00:32:08;;;;;;;14.38;12.88;;;;;;;15.13;80.30;98644.72;5075286;28;20068;-72
2023/09/27 00:34:34;;;;;;;13.63;12.02;;;;;;;15.13;80.42;98642.00;5039825;28;20052;-72
2023/09/27 00:37:00;;;;;;;13.35;12.05;;;;;;;15.12;80.36;98648.50;5037441;28;20029;-72
2023/09/27 02:17:48;;;;;;;19.90;16.13;;;;;;;14.00;82.38;98676.78;5071769;28;20039;-73
2023/09/27 02:20:17;;;;;;;47.88;21.67;;;;;;;14.03;82.55;98687.09;5033972;28;20041;-71
2023/09/27 02:22:44;;;;;;;285.90;34.53;;;;;;;14.00;82.73;98683.03;5047111;28;20033;-71
2023/09/27 02:25:13;;;;;;;101.95;28.40;;;;;;;13.98;82.98;98678.94;5050601;28;20066;-72
2023/09/27 02:27:39;;;;;;;228.68;36.63;;;;;;;14.00;83.08;98684.91;5053951;28;20017;-72
2023/09/27 02:30:07;;;;;;;104.78;25.50;;;;;;;14.04;83.42;98691.47;5053646;28;20040;-72
2023/09/27 02:32:33;;;;;;;42.65;25.42;;;;;;;14.11;83.91;98701.03;5037169;28;20456;-72
2023/09/27 02:34:59;;;;;;;28.55;21.17;;;;;;;14.12;83.42;98697.22;5036524;28;20109;-72
2023/09/27 02:37:25;;;;;;;25.50;20.35;;;;;;;14.09;83.94;98691.50;5053444;28;20161;-72
2023/09/27 02:39:51;;;;;;;29.80;21.83;;;;;;;14.22;83.34;98696.53;5070083;28;20040;-71
2023/09/27 02:42:16;;;;;;;25.02;20.60;;;;;;;14.22;83.56;98693.81;5053282;28;20038;-72
2023/09/27 02:44:42;;;;;;;56.33;24.42;;;;;;;14.19;83.66;98691.63;5052920;28;20040;-71
2023/09/27 02:47:07;;;;;;;121.88;23.75;;;;;;;14.22;83.36;98693.81;5069135;28;20031;-72
2023/09/27 02:49:34;;;;;;;114.00;27.63;;;;;;;14.19;83.96;98697.06;5035686;28;20553;-71
2023/09/27 02:52:00;;;;;;;63.85;27.65;;;;;;;14.12;84.69;98685.59;5036874;28;20401;-71
2023/09/27 02:54:25;;;;;;;18.60;16.65;;;;;;;14.15;84.82;98701.31;5053249;28;20036;-71
2023/09/27 02:56:51;;;;;;;23.63;21.13;;;;;;;14.19;84.60;98687.00;5037113;28;20115;-71
2023/09/27 02:59:16;;;;;;;19.52;17.60;;;;;;;14.29;84.57;98697.13;5053747;28;20054;-72
2023/09/27 03:01:41;;;;;;;19.48;17.58;;;;;;;14.32;84.72;98693.94;5053949;28;20020;-72
2023/09/27 03:04:08;;;;;;;18.27;16.58;;;;;;;14.25;84.49;98680.59;5070220;28;20134;-72
2023/09/27 03:06:35;;;;;;;18.17;16.40;;;;;;;14.26;84.39;98676.00;5034765;28;20029;-72
2023/09/27 03:09:01;;;;;;;13.82;12.63;;;;;;;14.32;84.63;98685.81;5050129;28;20025;-71
2023/09/27 03:11:27;;;;;;;13.32;12.13;;;;;;;14.34;84.19;98678.25;5033221;28;20095;-71
2023/09/27 03:13:52;;;;;;;14.73;13.43;;;;;;;14.28;84.62;98663.78;5020594;28;20087;-71
2023/09/27 03:16:18;;;;;;;15.93;14.23;;;;;;;14.11;84.18;98640.63;5056798;28;20036;-71
2023/09/27 03:18:43;;;;;;;15.68;14.07;;;;;;;14.21;83.85;98659.69;5057247;28;20438;-73
2023/09/27 03:21:10;;;;;;;15.43;13.85;;;;;;;14.21;83.71;98651.56;5055358;28;20044;-74
2023/09/27 03:23:35;;;;;;;43.55;22.48;;;;;;;14.10;83.53;98649.78;5053680;28;20060;-75
2023/09/27 03:26:00;;;;;;;65.93;22.92;;;;;;;13.79;83.04;98633.22;5050338;28;20035;-74
2023/09/27 03:28:26;;;;;;;223.20;31.92;;;;;;;13.84;82.84;98668.50;5036830;28;20047;-75
2023/09/27 03:30:51;;;;;;;21.23;17.35;;;;;;;13.65;83.05;98647.44;5031222;28;20037;-75
2023/09/27 03:33:17;;;;;;;21.30;19.00;;;;;;;13.65;82.57;98656.34;5036931;28;20040;-72
2023/09/27 03:35:43;;;;;;;31.45;23.13;;;;;;;13.54;82.87;98668.13;5042384;28;20025;-71
2023/09/27 03:38:08;;;;;;;23.75;19.73;;;;;;;13.35;83.39;98653.28;5036583;28;20028;-71
2023/09/27 03:40:34;;;;;;;23.20;19.58;;;;;;;13.35;83.01;98650.56;5055069;28;20377;-72
2023/09/27 03:42:59;;;;;;;23.23;19.50;;;;;;;13.41;83.46;98656.88;5073226;28;20047;-73
2023/09/27 03:45:27;;;;;;;27.75;22.42;;;;;;;13.01;83.89;98581.41;5072590;28;20028;-72
2023/09/27 03:47:53;;;;;;;29.88;23.05;;;;;;;13.46;83.28;98652.34;5053544;28;20096;-73
2023/09/27 03:50:20;;;;;;;21.60;19.02;;;;;;;13.39;83.64;98638.19;5035392;28;20047;-73
2023/09/27 03:52:45;;;;;;;24.45;21.33;;;;;;;13.52;84.17;98656.75;5037173;28;20491;-73
2023/09/27 03:55:11;;;;;;;21.13;18.50;;;;;;;13.58;84.92;98649.53;5048361;28;20052;-71
2023/09/27 03:57:37;;;;;;;19.02;17.13;;;;;;;13.56;84.25;98636.22;5053552;28;20033;-71
2023/09/27 04:00:09;;;;;;;22.05;18.40;;;;;;;13.43;84.16;98606.84;5046926;28;20033;-73
2023/09/27 04:02:38;;;;;;;19.27;17.27;;;;;;;13.64;84.22;98643.91;5053273;28;20401;-72
2023/09/27 04:05:04;;;;;;;19.33;17.33;;;;;;;13.74;84.13;98651.31;5037675;28;20025;-72
2023/09/27 04:07:29;;;;;;;23.33;19.98;;;;;;;13.75;84.09;98652.94;5053012;28;20029;-73
2023/09/27 04:09:55;;;;;;;20.70;17.88;;;;;;;13.63;84.09;98653.09;5033403;28;20091;-74
2023/09/27 04:12:20;;;;;;;25.33;19.05;;;;;;;13.49;84.51;98665.34;5049722;28;20033;-73
2023/09/27 04:14:45;;;;;;;19.98;17.48;;;;;;;13.51;84.58;98665.91;5050847;28;20435;-72
2023/09/27 04:17:11;;;;;;;28.33;19.50;;;;;;;13.25;84.65;98663.97;5056157;28;20044;-72
2023/09/27 04:19:36;;;;;;;233.45;36.17;;;;;;;13.23;84.33;98666.13;5056497;28;20032;-73
2023/09/27 04:22:01;;;;;;;349.58;46.60;;;;;;;13.30;84.20;98677.56;5073689;28;20466;-72
2023/09/27 04:24:27;;;;;;;261.83;38.78;;;;;;;13.27;85.32;98669.13;5055499;28;20108;-73
2023/09/27 04:26:53;;;;;;;47.72;28.05;;;;;;;13.39;85.25;98680.66;5054879;28;20028;-73
2023/09/27 04:29:19;;;;;;;38.17;25.33;;;;;;;13.40;85.25;98672.28;5056522;28;20040;-73
2023/09/27 04:31:45;;;;;;;41.15;24.02;;;;;;;13.55;85.49;98680.59;5052489;28;20033;-73
2023/09/27 04:34:11;;;;;;;41.88;21.98;;;;;;;13.61;85.56;98668.75;5049005;28;20091;-73
2023/09/27 04:36:36;;;;;;;50.78;23.52;;;;;;;13.66;85.40;98676.94;5073498;28;20063;-73
2023/09/27 04:39:05;;;;;;;32.25;24.95;;;;;;;13.55;85.13;98658.13;5037319;28;20059;-72
2023/09/27 04:41:30;;;;;;;77.88;31.05;;;;;;;13.64;85.53;98683.69;5055495;28;20043;-74
2023/09/27 04:43:57;;;;;;;77.78;38.58;;;;;;;13.52;85.25;98664.88;5055532;28;20033;-73
2023/09/27 04:46:22;;;;;;;28.77;24.10;;;;;;;13.53;85.45;98671.94;5070615;28;20045;-74
2023/09/27 04:48:48;;;;;;;46.53;30.52;;;;;;;13.56;85.35;98686.84;5054030;28;20047;-74
2023/09/27 04:51:13;;;;;;;70.68;30.30;;;;;;;13.30;85.06;98685.69;5073880;28;20040;-73
2023/09/27 04:53:39;;;;;;;160.43;44.17;;;;;;;13.32;85.83;98702.47;5056177;28;20073;-72
2023/09/27 04:56:10;;;;;;;136.77;25.58;;;;;;;13.06;85.01;98668.84;5052205;28;20517;-72
2023/09/27 04:58:35;;;;;;;347.80;51.90;;;;;;;13.31;85.26;98711.66;5069714;28;20115;-71
2023/09/27 05:01:01;;;;;;;75.60;26.30;;;;;;;13.31;85.77;98714.34;5055887;28;20107;-71
2023/09/27 05:03:26;;;;;;;83.72;28.85;;;;;;;13.30;85.28;98718.16;5055525;28;20099;-72
2023/09/27 05:05:52;;;;;;;110.65;31.13;;;;;;;13.24;85.83;98710.19;5039106;28;20103;-72
2023/09/27 05:08:17;;;;;;;120.40;29.83;;;;;;;13.32;86.15;98729.53;5074199;28;20078;-73
2023/09/27 05:10:42;;;;;;;487.85;67.18;;;;;;;13.19;85.67;98702.81;5055175;28;20051;-72
2023/09/27 05:13:08;;;;;;;140.77;33.67;;;;;;;13.38;86.50;98742.06;5069599;28;20404;-74
2023/09/27 05:15:33;;;;;;;76.65;25.92;;;;;;;13.20;86.52;98703.66;5054399;28;20082;-74
2023/09/27 05:17:59;;;;;;;30.55;22.48;;;;;;;13.48;86.60;98739.50;5054916;28;20489;-73
2023/09/27 05:20:24;;;;;;;364.48;53.47;;;;;;;13.56;86.25;98744.47;5071523;28;20020;-76
2023/09/27 05:22:51;;;;;;;175.55;36.47;;;;;;;13.47;86.27;98742.44;5073064;28;20047;-75
2023/09/27 05:25:17;;;;;;;422.27;57.78;;;;;;;13.54;86.15;98754.72;5054740;28;20020;-74
2023/09/27 05:27:42;;;;;;;405.48;45.05;;;;;;;13.58;85.71;98761.28;5054752;28;20044;-74
2023/09/27 05:30:10;;;;;;;289.85;38.45;;;;;;;13.58;86.06;98752.34;5054840;28;20052;-74
2023/09/27 05:32:35;;;;;;;244.60;40.17;;;;;;;13.60;86.38;98752.91;5038086;28;20554;-73
2023/09/27 05:35:01;;;;;;;206.25;35.38;;;;;;;13.72;86.51;98757.13;5054195;28;20021;-74
2023/09/27 05:37:28;;;;;;;305.58;32.20;;;;;;;13.57;86.57;98748.81;5052100;28;20067;-73
2023/09/27 05:39:54;;;;;;;351.55;34.55;;;;;;;13.60;85.93;98748.34;5034368;28;20079;-74
2023/09/27 05:42:19;;;;;;;105.85;26.55;;;;;;;13.62;86.32;98756.19;5054229;28;20037;-74
2023/09/27 05:44:45;;;;;;;172.52;28.70;;;;;;;13.71;86.12;98760.94;5034092;28;20071;-74
2023/09/27 05:47:10;;;;;;;184.63;33.40;;;;;;;13.83;86.24;98769.75;5049323;28;20036;-73
2023/09/27 05:49:36;;;;;;;106.38;24.10;;;;;;;13.81;86.09;98771.91;5051127;28;20033;-73
2023/09/27 05:52:02;;;;;;;122.20;24.83;;;;;;;13.81;85.97;98761.06;5029990;28;20128;-74
2023/09/27 05:54:27;;;;;;;806.45;72.93;;;;;;;13.88;86.02;98782.53;5053871;28;20075;-73
2023/09/27 05:56:54;;;;;;;471.85;51.72;;;;;;;13.72;85.62;98773.38;5052164;28;20044;-74
2023/09/27 05:59:21;;;;;;;488.25;48.03;;;;;;;13.75;85.82;98794.53;5054480;28;20025;-72
2023/09/27 06:01:47;;;;;;;171.27;29.85;;;;;;;13.68;86.60;98793.91;5054270;28;20028;-74
2023/09/27 06:04:12;;;;;;;249.52;43.17;;;;;;;13.78;86.22;98788.63;5053860;28;20016;-74
2023/09/27 06:06:39;;;;;;;208.98;41.92;;;;;;;13.76;85.42;98790.78;5067355;28;20462;-74
2023/09/27 06:09:05;;;;;;;268.00;40.47;;;;;;;13.76;85.50;98785.38;5072027;28;20028;-73
2023/09/27 06:11:34;;;;;;;313.02;48.33;;;;;;;13.73;86.04;98787.72;5054147;28;20040;-73
2023/09/27 06:13:59;;;;;;;222.15;42.80;;;;;;;13.78;85.74;98783.22;5053842;28;20039;-73
2023/09/27 06:16:24;;;;;;;132.27;23.48;;;;;;;13.93;86.27;98803.44;5053332;28;20036;-74
2023/09/27 06:18:50;;;;;;;121.20;24.88;;;;;;;14.04;85.51;98802.50;5071832;28;20107;-73
2023/09/27 06:21:16;;;;;;;58.97;19.10;;;;;;;14.03;85.71;98790.00;5053894;28;20039;-73
2023/09/27 06:23:41;;;;;;;109.20;26.67;;;;;;;14.08;85.60;98776.53;5031059;28;20120;-73
2023/09/27 06:26:07;;;;;;;68.13;21.60;;;;;;;14.10;85.59;98783.34;5047260;28;20036;-74
2023/09/27 06:28:33;;;;;;;73.82;22.50;;;;;;;14.27;85.25;98796.81;5071584;28;20028;-73
2023/09/27 06:30:59;;;;;;;89.20;21.08;;;;;;;14.24;85.34;98787.31;5052105;28;20036;-74
2023/09/27 06:33:24;;;;;;;57.58;16.70;;;;;;;14.34;85.25;98797.47;5050335;28;20027;-74
2023/09/27 06:35:49;;;;;;;81.93;19.13;;;;;;;14.25;84.99;98783.53;5065795;28;20488;-74
2023/09/27 06:38:19;;;;;;;69.03;19.17;;;;;;;14.28;84.66;98771.38;5071690;28;20027;-74
2023/09/27 06:40:44;;;;;;;35.58;18.13;;;;;;;14.52;84.48;98789.81;5054123;28;20059;-74
2023/09/27 06:43:10;;;;;;;68.30;18.48;;;;;;;14.46;84.64;98777.31;5036952;28;20480;-75
2023/09/27 06:45:36;;;;;;;156.77;22.08;;;;;;;14.54;84.86;98781.44;5053060;28;20029;-74
2023/09/27 06:48:03;;;;;;;286.23;27.05;;;;;;;14.57;84.25;98778.22;5067316;28;20032;-74
2023/09/27 06:50:29;;;;;;;66.32;20.02;;;;;;;14.59;84.06;98778.78;5049088;28;20037;-73
2023/09/27 06:52:56;;;;;;;208.95;36.53;;;;;;;14.68;84.37;98787.28;5044985;28;20032;-74
2023/09/27 06:55:22;;;;;;;179.98;33.90;;;;;;;14.58;84.20;98782.56;5034989;28;20032;-74
2023/09/27 06:57:50;;;;;;;114.57;27.48;;;;;;;14.52;83.99;98789.00;5053337;28;20029;-74
2023/09/27 07:00:18;;;;;;;89.78;25.35;;;;;;;14.53;84.19;98796.06;5036801;28;20483;-73
2023/09/27 07:02:47;;;;;;;109.93;24.20;;;;;;;14.44;84.36;98775.91;5035033;28;20395;-75
2023/09/27 07:05:14;;;;;;;38.85;20.40;;;;;;;14.55;84.96;98772.22;5048127;28;20423;-73
2023/09/27 07:07:39;;;;;;;18.02;16.13;;;;;;;14.90;84.15;98779.88;5033971;28;20023;-73
2023/09/27 07:10:06;;;;;;;19.67;16.08;;;;;;;15.08;84.00;98776.78;5070965;28;20033;-73
2023/09/27 07:12:32;;;;;;;15.00;13.60;;;;;;;15.11;83.34;98766.25;5054771;28;20047;-74
2023/09/27 07:14:58;;;;;;;15.30;13.90;;;;;;;15.22;83.74;98778.81;5051902;28;20032;-74
2023/09/27 07:17:25;;;;;;;13.13;11.93;;;;;;;15.28;83.70;98776.13;5049547;28;20070;-73
2023/09/27 07:19:53;;;;;;;14.30;12.90;;;;;;;15.27;83.13;98771.78;5069554;28;20107;-74
2023/09/27 07:22:19;;;;;;;12.82;11.73;;;;;;;15.29;82.87;98766.91;5064112;28;20021;-74
2023/09/27 07:24:44;;;;;;;16.42;14.75;;;;;;;15.08;82.85;98738.78;5047615;28;20118;-74
2023/09/27 07:27:10;;;;;;;13.75;12.50;;;;;;;15.12;82.99;98751.59;5049703;28;20017;-73
2023/09/27 07:29:35;;;;;;;17.08;15.38;;;;;;;15.23;83.64;98764.16;5036490;28;20070;-73
2023/09/27 07:32:01;;;;;;;23.80;19.77;;;;;;;15.08;84.23;98765.94;5053079;28;20020;-74
2023/09/27 07:34:27;;;;;;;25.83;18.42;;;;;;;15.15;84.26;98780.91;5049032;28;20040;-73
2023/09/27 07:36:53;;;;;;;22.75;20.33;;;;;;;15.17;84.93;98781.47;5051937;28;20423;-73
2023/09/27 07:39:20;;;;;;;19.25;17.25;;;;;;;15.13;84.78;98758.66;5049428;28;20029;-74
2023/09/27 07:41:45;;;;;;;17.52;15.77;;;;;;;15.24;84.80;98754.94;5033093;28;20036;-73
2023/09/27 07:44:12;;;;;;;23.42;18.95;;;;;;;15.44;85.13;98769.72;5049160;28;20033;-74
2023/09/27 07:46:38;;;;;;;24.10;20.65;;;;;;;15.40;85.17;98763.19;5067789;28;20048;-74
2023/09/27 07:49:03;;;;;;;29.42;21.10;;;;;;;15.47;85.53;98763.81;5036410;28;20103;-74
2023/09/27 07:51:29;;;;;;;29.70;22.80;;;;;;;15.48;85.35;98762.72;5032771;28;20503;-74
2023/09/27 07:53:54;;;;;;;28.50;22.23;;;;;;;15.62;85.89;98774.75;5052126;28;20040;-74
2023/09/27 07:56:22;;;;;;;54.08;24.15;;;;;;;15.76;85.71;98786.78;5035776;28;20030;-74
2023/09/27 07:58:52;;;;;;;55.28;23.33;;;;;;;15.75;85.80;98783.25;5051273;28;20032;-74
2023/09/27 08:01:20;;;;;;;24.08;20.92;;;;;;;15.82;86.04;98778.41;5038933;28;20095;-74
2023/09/27 08:03:52;;;;;;;28.23;19.42;;;;;;;15.89;85.61;98773.53;5054464;28;20032;-74
2023/09/27 08:06:18;;;;;;;59.80;22.85;;;;;;;15.97;85.50;98785.00;5038996;28;20047;-75
2023/09/27 08:08:44;;;;;;;67.47;21.80;;;;;;;15.84;86.19;98787.13;5053999;28;20024;-73
2023/09/27 08:11:13;;;;;;;160.43;27.52;;;;;;;15.81;86.28;98792.25;5039545;28;20519;-74
2023/09/27 08:13:39;;;;;;;138.30;28.05;;;;;;;15.84;86.20;98791.72;5053190;28;20029;-73
2023/09/27 08:16:06;;;;;;;478.60;43.22;;;;;;;15.75;85.72;98790.59;5044916;28;20032;-74
2023/09/27 08:18:33;;;;;;;127.40;27.20;;;;;;;15.68;86.10;98784.59;5038878;28;20029;-73
2023/09/27 08:20:59;;;;;;;215.65;36.63;;;;;;;15.69;86.83;98805.22;5056143;28;20064;-73
2023/09/27 08:23:24;;;;;;;71.35;29.35;;;;;;;15.75;86.21;98802.25;5052520;28;20104;-74
2023/09/27 08:25:51;;;;;;;76.00;31.45;;;;;;;15.70;86.37;98787.84;5052691;28;20029;-74
2023/09/27 08:28:17;;;;;;;104.35;32.58;;;;;;;15.75;86.21;98809.59;5055860;28;20036;-74
2023/09/27 08:30:42;;;;;;;113.88;35.70;;;;;;;15.81;86.14;98813.97;5053164;28;20040;-73
2023/09/27 08:33:07;;;;;;;163.82;40.63;;;;;;;15.56;86.58;98792.09;5055672;28;20032;-74
2023/09/27 08:35:33;;;;;;;63.05;31.52;;;;;;;15.60;86.37;98780.47;5051827;28;20048;-74
2023/09/27 08:37:59;;;;;;;38.13;30.80;;;;;;;15.69;86.50;98795.16;5037550;28;20101;-75
2023/09/27 08:40:24;;;;;;;41.67;30.73;;;;;;;15.88;86.34;98809.13;5025593;28;20037;-74
2023/09/27 08:42:55;;;;;;;37.50;30.33;;;;;;;15.92;85.94;98793.13;5052965;28;20032;-74
2023/09/27 08:45:22;;;;;;;39.63;28.75;;;;;;;16.01;85.42;98792.34;5032454;28;20037;-74
2023/09/27 08:47:48;;;;;;;70.70;32.38;;;;;;;16.24;84.84;98800.03;5038305;28;20028;-75
2023/09/27 08:50:14;;;;;;;44.00;30.42;;;;;;;16.38;84.41;98798.47;5055474;28;20043;-75
2023/09/27 08:52:46;;;;;;;47.20;31.70;;;;;;;16.48;84.39;98795.78;5055538;28;20523;-75
2023/09/27 08:55:12;;;;;;;33.00;24.35;;;;;;;16.63;84.34;98800.50;5038320;28;20028;-75
2023/09/27 08:57:46;;;;;;;35.25;26.33;;;;;;;16.71;83.60;98774.69;5052178;28;20025;-75
2023/09/27 09:00:19;;;;;;;24.88;22.25;;;;;;;17.05;83.64;98783.94;5029422;28;20457;-75
2023/09/27 09:02:48;;;;;;;26.60;21.92;;;;;;;17.33;82.69;98782.59;5052742;28;20048;-75
2023/09/27 09:05:15;;;;;;;25.63;22.05;;;;;;;17.44;82.73;98793.19;5054914;28;20028;-74
2023/09/27 09:07:41;;;;;;;23.92;20.67;;;;;;;17.50;82.21;98783.94;5072764;28;20044;-75
2023/09/27 09:10:16;;;;;;;21.00;18.80;;;;;;;17.34;82.28;98763.25;5054973;28;20029;-75
2023/09/27 09:12:43;;;;;;;22.58;19.95;;;;;;;17.45;82.35;98781.22;5047925;28;20370;-74
2023/09/27 09:15:14;;;;;;;23.67;20.88;;;;;;;17.16;83.06;98761.09;5038008;28;20020;-75
2023/09/27 09:17:47;;;;;;;23.50;19.25;;;;;;;17.28;83.39;98783.41;5047171;28;20067;-74
2023/09/27 09:20:17;;;;;;;22.23;19.90;;;;;;;17.29;83.65;98771.44;5055772;28;20120;-74
2023/09/27 09:22:44;;;;;;;22.52;20.13;;;;;;;17.41;83.37;98779.31;5052191;28;20473;-74
2023/09/27 09:25:09;;;;;;;21.10;18.55;;;;;;;17.45;83.97;98783.13;5034292;28;20075;-73
2023/09/27 09:27:37;;;;;;;20.15;18.00;;;;;;;17.41;83.80;98758.31;5068877;28;20053;-73
2023/09/27 09:30:06;;;;;;;19.33;17.27;;;;;;;17.49;83.30;98760.50;5068032;28;20055;-74
2023/09/27 09:32:32;;;;;;;18.98;16.98;;;;;;;17.65;83.71;98773.03;5054965;28;20067;-73
2023/09/27 09:34:57;;;;;;;18.45;16.55;;;;;;;17.72;83.23;98754.50;5053091;28;20025;-75
2023/09/27 09:37:31;;;;;;;19.77;16.45;;;;;;;17.87;82.69;98757.19;5072293;28;20500;-75
2023/09/27 09:40:17;;;;;;;19.30;14.93;;;;;;;17.90;82.43;98751.16;5052752;28;20032;-74
2023/09/27 09:42:43;;;;;;;16.23;14.52;;;;;;;18.13;82.18;98748.91;5061822;28;20127;-74
2023/09/27 09:45:12;;;;;;;17.10;14.35;;;;;;;18.30;82.06;98749.34;5050658;28;20552;-74
2023/09/27 09:47:43;;;;;;;17.50;13.23;;;;;;;18.46;81.72;98745.50;5052770;28;20040;-74
2023/09/27 09:50:18;;;;;;;15.25;12.52;;;;;;;18.63;81.61;98737.72;5043271;28;20052;-74
2023/09/27 09:52:57;;;;;;;16.88;13.07;;;;;;;18.70;81.04;98735.50;5051502;28;20326;-74
2023/09/27 09:55:29;;;;;;;14.98;12.25;;;;;;;18.86;80.79;98731.56;5053498;28;20032;-75
2023/09/27 09:58:13;;;;;;;14.20;12.70;;;;;;;18.97;80.08;98733.13;5069217;28;20120;-74
2023/09/27 10:00:43;;;;;;;13.13;11.27;;;;;;;19.10;79.78;98726.19;5071948;28;20098;-74
2023/09/27 10:03:15;;;;;;;13.45;11.23;;;;;;;19.13;79.51;98707.31;5050459;28;20029;-74
2023/09/27 10:05:42;;;;;;;12.05;10.45;;;;;;;19.29;79.00;98708.81;5037380;28;20511;-73
2023/09/27 10:08:07;;;;;;;13.40;9.65;;;;;;;19.45;78.64;98716.88;5050741;28;20519;-74
2023/09/27 10:10:33;;;;;;;11.38;9.82;;;;;;;19.56;78.00;98719.19;5053927;28;20052;-74
2023/09/27 10:13:00;;;;;;;14.70;9.85;;;;;;;19.70;77.53;98719.31;5050360;28;20610;-74
2023/09/27 10:15:26;;;;;;;10.50;9.40;;;;;;;19.85;77.62;98721.88;5049907;28;20048;-74
2023/09/27 10:17:52;;;;;;;11.23;9.23;;;;;;;19.95;76.88;98719.03;5068341;28;20115;-74
2023/09/27 10:20:22;;;;;;;12.23;9.98;;;;;;;19.95;76.95;98694.44;5070495;28;20119;-74
2023/09/27 10:22:49;;;;;;;10.35;8.35;;;;;;;20.17;76.42;98708.34;5034879;28;20051;-74
2023/09/27 10:25:23;;;;;;;13.10;8.38;;;;;;;20.30;76.53;98701.38;5048905;28;20017;-74
2023/09/27 10:28:12;;;;;;;12.45;9.65;;;;;;;20.27;76.20;98697.31;5068942;28;20078;-73
2023/09/27 10:30:40;;;;;;;10.95;9.82;;;;;;;20.39;75.70;98689.47;5053746;28;20059;-74
2023/09/27 10:33:14;;;;;;;11.32;8.52;;;;;;;20.47;75.48;98686.06;5071211;28;20021;-74
2023/09/27 10:35:40;;;;;;;9.32;8.30;;;;;;;20.66;75.06;98684.13;5052771;28;20036;-74
2023/09/27 10:38:08;;;;;;;10.98;8.48;;;;;;;20.83;74.47;98671.81;5053292;28;20469;-74
2023/09/27 10:40:44;;;;;;;12.15;8.93;;;;;;;20.87;74.17;98650.94;5071257;28;20047;-74
2023/09/27 10:43:11;;;;;;;11.93;9.00;;;;;;;20.87;73.64;98642.72;5042231;28;20087;-74
2023/09/27 10:45:36;;;;;;;10.98;8.38;;;;;;;21.04;73.50;98641.09;5047976;28;20078;-75
2023/09/27 10:48:15;;;;;;;9.48;8.27;;;;;;;21.27;73.08;98650.25;5051499;28;20048;-74
2023/09/27 10:50:50;;;;;;;8.55;7.65;;;;;;;21.33;72.60;98632.63;5057573;28;20043;-74
2023/09/27 10:53:15;;;;;;;9.63;7.90;;;;;;;21.42;72.42;98635.44;5029818;28;20407;-74
2023/09/27 10:55:41;;;;;;;8.35;7.47;;;;;;;21.60;71.83;98623.56;5070748;28;20024;-74
2023/09/27 10:58:06;;;;;;;10.30;7.80;;;;;;;21.63;71.88;98604.59;5053255;28;20115;-75
2023/09/27 11:00:32;;;;;;;8.43;7.35;;;;;;;21.94;72.04;98622.03;5053236;28;20032;-75
2023/09/27 11:02:57;;;;;;;8.75;7.72;;;;;;;22.08;71.65;98622.00;5063589;28;20186;-74
2023/09/27 11:05:24;;;;;;;9.07;8.05;;;;;;;22.10;70.91;98613.47;5049047;28;20013;-75
2023/09/27 11:07:50;;;;;;;10.20;7.20;;;;;;;22.14;70.75;98619.97;5032057;28;20036;-74
2023/09/27 11:10:32;;;;;;;7.95;7.15;;;;;;;22.24;70.22;98614.25;5071072;28;20025;-74
2023/09/27 11:13:11;;;;;;;8.98;7.50;;;;;;;22.29;69.34;98601.19;5053100;28;20033;-75
2023/09/27 11:15:41;;;;;;;9.43;6.70;;;;;;;22.45;69.37;98598.94;5052628;28;20196;-75
2023/09/27 11:18:07;;;;;;;8.07;7.25;;;;;;;22.55;69.08;98593.97;5036610;28;20707;-75
2023/09/27 11:20:33;;;;;;;6.78;6.07;;;;;;;22.76;68.72;98588.81;5053241;28;20088;-75
2023/09/27 11:22:59;;;;;;;7.20;6.45;;;;;;;22.89;68.43;98571.47;5053187;28;20500;-75
2023/09/27 11:25:32;;;;;;;7.43;6.53;;;;;;;23.09;67.97;98567.34;5052761;28;20411;-74
2023/09/27 11:27:58;;;;;;;8.20;6.97;;;;;;;23.17;67.67;98559.16;5052994;28;20041;-73
2023/09/27 11:30:30;;;;;;;8.80;6.60;;;;;;;23.28;67.55;98563.22;5053178;28;20024;-75
2023/09/27 11:32:55;;;;;;;6.93;6.22;;;;;;;23.38;67.20;98533.84;5053334;28;20037;-75
2023/09/27 11:35:23;;;;;;;8.35;6.43;;;;;;;23.44;66.65;98535.31;5036948;28;20032;-74
2023/09/27 11:37:49;;;;;;;8.75;6.53;;;;;;;23.59;66.88;98546.69;5052916;28;20167;-75
2023/09/27 11:40:15;;;;;;;8.20;6.25;;;;;;;23.74;65.23;98548.97;5056710;28;20021;-75
2023/09/27 11:42:42;;;;;;;9.50;6.20;;;;;;;23.96;64.67;98535.09;5074203;28;20040;-75
2023/09/27 11:45:09;;;;;;;6.85;5.60;;;;;;;25.06;61.94;98540.78;5055749;28;20016;-75
2023/09/27 11:48:05;;;;;;;9.55;6.10;;;;;;;26.78;56.59;98534.06;5036304;28;20546;-75
2023/09/27 11:50:30;;;;;;;9.02;6.55;;;;;;;28.15;52.48;98533.03;5048088;28;20125;-74
2023/09/27 11:52:56;;;;;;;7.55;6.40;;;;;;;29.40;49.87;98533.31;5054851;28;20032;-75
2023/09/27 11:55:21;;;;;;;7.20;6.25;;;;;;;30.60;46.24;98513.75;5069425;28;20127;-75
2023/09/27 11:57:46;;;;;;;8.10;6.07;;;;;;;31.22;45.99;98526.44;5031606;28;20049;-73
2023/09/27 12:00:15;;;;;;;7.50;5.70;;;;;;;31.83;44.24;98531.81;5034478;28;20044;-75
2023/09/27 12:02:41;;;;;;;8.65;6.60;;;;;;;32.29;42.29;98515.72;5067537;28;20024;-76
2023/09/27 12:05:07;;;;;;;7.70;6.32;;;;;;;32.50;42.46;98518.78;5053463;28;20043;-74
2023/09/27 12:07:32;;;;;;;6.85;6.15;;;;;;;32.75;41.75;98529.03;5062976;28;20028;-76
2023/09/27 12:09:58;;;;;;;8.40;6.07;;;;;;;32.12;42.65;98508.72;5074125;28;20094;-76
2023/09/27 12:12:23;;;;;;;8.75;6.20;;;;;;;31.41;43.64;98532.72;5052829;28;20025;-75
2023/09/27 12:14:51;;;;;;;8.95;6.53;;;;;;;32.69;41.50;98529.78;5050873;28;20036;-76
2023/09/27 12:17:17;;;;;;;8.80;6.25;;;;;;;32.73;40.77;98528.63;5052831;28;20400;-74
2023/09/27 12:19:43;;;;;;;7.88;6.28;;;;;;;33.29;39.91;98527.59;5069491;28;20056;-76
2023/09/27 12:22:09;;;;;;;7.32;6.30;;;;;;;33.67;39.13;98524.34;5073828;28;20512;-76
2023/09/27 12:24:34;;;;;;;6.90;6.20;;;;;;;34.00;38.47;98521.31;5037457;28;20029;-76
2023/09/27 12:27:00;;;;;;;6.72;5.88;;;;;;;34.41;37.26;98523.94;5052491;28;20044;-76
2023/09/27 12:29:25;;;;;;;6.97;6.20;;;;;;;33.00;39.80;98511.75;5068753;28;20037;-75
2023/09/27 12:31:50;;;;;;;9.65;6.45;;;;;;;32.50;39.95;98521.59;5073732;28;20028;-75
2023/09/27 12:34:16;;;;;;;8.52;6.32;;;;;;;32.83;40.23;98524.34;5073107;28;20036;-76
2023/09/27 12:36:41;;;;;;;7.88;6.30;;;;;;;31.99;41.23;98501.81;5055672;28;20025;-75
2023/09/27 12:39:07;;;;;;;9.32;6.32;;;;;;;32.87;39.92;98513.19;5071878;28;20049;-76
2023/09/27 12:41:32;;;;;;;6.47;5.88;;;;;;;33.61;38.16;98503.53;5039082;28;20032;-76
2023/09/27 12:43:58;;;;;;;8.23;6.80;;;;;;;32.67;39.89;98507.81;5055601;28;20037;-76
2023/09/27 12:46:23;;;;;;;8.30;6.38;;;;;;;32.91;39.24;98502.91;5054849;28;20017;-76
2023/09/27 12:48:49;;;;;;;8.63;6.25;;;;;;;31.41;41.92;98521.56;5055888;28;20661;-76
2023/09/27 12:51:14;;;;;;;6.65;5.97;;;;;;;31.73;41.80;98510.16;5074873;28;20021;-77
2023/09/27 12:53:40;;;;;;;10.30;6.50;;;;;;;32.43;40.12;98488.81;5076365;28;20047;-76
2023/09/27 12:56:05;;;;;;;8.13;6.55;;;;;;;32.06;40.72;98513.03;5074665;28;20094;-76